EDDB Airport Information

Runway Information
Runway 07L Length 8891 ft width 148 ft
Elevation 148 ft Threshold 0 ft Heading 69
Runway 25R Length 8891 ft Width 148 ft
Elevation 145 ft Threshold 0 ft Heading 249
Runway 07R Length 9843 ft width 148 ft
Elevation 146 ft Threshold 0 ft Heading 69
Runway 25L Length 9843 ft Width 148 ft
Elevation 155 ft Threshold 0 ft Heading 249
Airport Frequencies
Type AFIS Name BERLIN INF Frequency 132.65 MHZ
Type APP Name BERLIN ARR Frequency 119.625 MHZ
Type ATIS Name ATIS Frequency 124.95 MHZ
Type DEP Name BERLIN DEP Frequency 120.625 MHZ
Type DIR Name BERLIN DIR Frequency 136.1 MHZ
Type GND Name GND Frequency 121.6 MHZ
Type INFO Name INFO Frequency 122.7 MHZ
Type TWR Name TWR Frequency 120.025 MHZ
Airport Navaids
Type DME Name Schonefeld Frequency 114400 KHZ
Type NDB Name Schonefeld Frequency 362 KHZ
Airport Weather Information & NOTAM
ADDS - METARS form results

(1511 UTC 25 October 2021)
Data provider http://aviationweather.gov/metar/data/
 
METAR text: EDDB 251450Z 19006KT CAVOK 10/05 Q1019 NOSIG
Conditions at: EDDB (BERLIN/BRANDERNB, DE) observed 1450 UTC 25 October 2021
Temperature: 10.0°C (50°F)
Dewpoint: 5.0°C (41°F) [RH = 71%]
Pressure (altimeter): 30.09 inches Hg (1019.0 mb)
Winds: from the S (190 degrees) at 7 MPH (6 knots; 3.1 m/s)
Visibility: 6 or more miles (10+ km)
Ceiling: ceiling and visibility are OK
Clouds: unknown
Weather: no significant weather observed at this time

METAR text: EDDB 251420Z 19006KT CAVOK 11/05 Q1019 NOSIG
Conditions at: EDDB (BERLIN/BRANDERNB, DE) observed 1420 UTC 25 October 2021
Temperature: 11.0°C (52°F)
Dewpoint: 5.0°C (41°F) [RH = 66%]
Pressure (altimeter): 30.09 inches Hg (1019.0 mb)
Winds: from the S (190 degrees) at 7 MPH (6 knots; 3.1 m/s)
Visibility: 6 or more miles (10+ km)
Ceiling: ceiling and visibility are OK
Clouds: unknown
Weather: no significant weather observed at this time

Forecast for: EDDB (BERLIN/BRANDERNB, DE)
Text: TAF EDDB 251100Z 2512/2612 19010KT CAVOK
Forecast period: 1200 to 1300 UTC 25 October 2021
Forecast type: FROM: standard forecast or significant change
Winds: from the S (190 degrees) at 12 MPH (10 knots; 5.1 m/s)
Visibility: 6 or more miles (10+ km)
Ceiling: unknown
Clouds: missing
Weather: NSW  (no significant weather)
Text: BECMG 2513/2516 19005KT
Forecast period: 1300 UTC 25 October 2021 to 0800 UTC 26 October 2021
Forecast type: BECOMING: Conditions expected to become as follows by 1600 UTC 25 October 2021
Winds: from the S (190 degrees) at 6 MPH (5 knots; 2.6 m/s)
Visibility: 6 or more miles (10+ km)
Ceiling: unknown
Clouds: missing
Weather: NSW  (no significant weather)
Text: BECMG 2608/2611 27008KT
Forecast period: 0800 to 1200 UTC 26 October 2021
Forecast type: BECOMING: Conditions expected to become as follows by 1100 UTC 26 October 2021
Winds: from the W (270 degrees) at 9 MPH (8 knots; 4.1 m/s)
Visibility: 6 or more miles (10+ km)
Ceiling: unknown
Clouds: missing
Weather: NSW  (no significant weather)